Time;durP1;ratioP1;P1;durP2;ratioP2;P2;SDS_P1;SDS_P2;PMS_P1;PMS_P2;Temp;Humidity;BMP_temperature;BMP_pressure;BME280_temperature;BME280_humidity;BME280_pressure;Samples;Min_cycle;Max_cycle;Signal;HPM_P1;HPM_P2
2021/05/14 00:00:09;;;;;;;9.25;8.35;;;15.20;99.90;;;;;;2064321;28;20058;-68
2021/05/14 00:01:10;;;;;;;9.52;8.65;;;15.20;99.90;;;;;;2064077;28;20026;-68
2021/05/14 00:02:10;;;;;;;8.18;7.38;;;15.20;99.90;;;;;;2063662;28;20038;-68
2021/05/14 00:03:11;;;;;;;10.40;9.45;;;15.20;99.90;;;;;;2063722;28;20037;-68
2021/05/14 00:04:11;;;;;;;9.68;8.68;;;15.20;99.90;;;;;;2064223;28;20113;-68
2021/05/14 00:05:12;;;;;;;11.05;9.07;;;15.20;99.90;;;;;;2064302;28;20500;-68
2021/05/14 00:06:13;;;;;;;8.15;7.45;;;15.20;99.90;;;;;;2064031;28;20031;-68
2021/05/14 00:07:13;;;;;;;10.68;9.77;;;15.20;99.90;;;;;;2063835;28;20031;-68
2021/05/14 00:08:14;;;;;;;11.10;10.02;;;15.20;99.90;;;;;;2064331;28;20034;-68
2021/05/14 00:09:16;;;;;;;9.70;8.70;;;15.20;99.90;;;;;;2064196;28;20057;-68
2021/05/14 00:10:19;;;;;;;12.20;10.95;;;15.20;99.90;;;;;;2064048;28;20446;-68
2021/05/14 00:11:20;;;;;;;11.48;10.32;;;15.20;99.90;;;;;;2064033;28;20058;-68
2021/05/14 00:12:21;;;;;;;8.75;7.85;;;15.20;99.90;;;;;;2062946;28;20034;-68
2021/05/14 00:13:23;;;;;;;9.98;9.07;;;15.20;99.90;;;;;;2063904;28;20462;-68
2021/05/14 00:14:23;;;;;;;13.02;11.82;;;15.20;99.90;;;;;;2064347;28;20026;-68
2021/05/14 00:15:24;;;;;;;11.10;9.10;;;15.10;99.90;;;;;;2063830;28;21092;-68
2021/05/14 00:16:25;;;;;;;13.68;10.98;;;15.10;99.90;;;;;;2064270;28;20088;-68
2021/05/14 00:17:26;;;;;;;11.13;10.02;;;15.10;99.90;;;;;;2063918;28;20034;-68
2021/05/14 00:18:26;;;;;;;11.60;10.55;;;15.10;99.90;;;;;;2064142;28;20084;-68
2021/05/14 00:19:27;;;;;;;10.90;9.90;;;15.10;99.90;;;;;;2064272;28;20101;-68
2021/05/14 00:20:27;;;;;;;12.70;11.60;;;15.10;99.90;;;;;;2064125;28;20571;-68
2021/05/14 00:21:29;;;;;;;13.90;12.50;;;15.10;99.90;;;;;;2063826;28;20101;-68
2021/05/14 00:22:30;;;;;;;11.00;9.88;;;15.10;99.90;;;;;;2063030;28;20041;-68
2021/05/14 00:23:30;;;;;;;12.25;10.98;;;15.10;99.90;;;;;;2063895;28;20117;-68
2021/05/14 00:24:31;;;;;;;14.18;12.77;;;15.10;99.90;;;;;;2064111;28;20033;-68
2021/05/14 00:25:31;;;;;;;15.27;13.57;;;15.10;99.90;;;;;;2063865;28;20029;-68
2021/05/14 00:26:32;;;;;;;14.57;13.15;;;15.00;99.90;;;;;;2064122;28;20026;-68
2021/05/14 00:27:33;;;;;;;13.02;11.93;;;15.00;99.90;;;;;;2063268;28;20043;-68
2021/05/14 00:28:33;;;;;;;14.30;13.10;;;15.00;99.90;;;;;;2063453;28;20037;-68
2021/05/14 00:29:34;;;;;;;13.88;12.68;;;15.00;99.90;;;;;;2063885;28;20035;-68
2021/05/14 00:30:35;;;;;;;10.90;9.93;;;15.00;99.90;;;;;;2063884;28;20026;-68
2021/05/14 00:31:35;;;;;;;15.25;13.68;;;15.00;99.90;;;;;;2071300;28;20519;-68
2021/05/14 00:32:36;;;;;;;12.02;11.00;;;15.00;99.90;;;;;;2076153;28;20516;-68
2021/05/14 00:33:37;;;;;;;15.23;13.82;;;15.00;99.90;;;;;;2063926;28;20053;-68
2021/05/14 00:34:37;;;;;;;13.38;12.27;;;15.00;99.90;;;;;;2064898;28;20022;-68
2021/05/14 00:35:38;;;;;;;13.35;12.00;;;15.00;99.90;;;;;;2063885;28;20093;-68
2021/05/14 00:36:39;;;;;;;12.18;10.98;;;15.00;99.90;;;;;;2063859;28;20057;-68
2021/05/14 00:37:39;;;;;;;14.88;13.38;;;15.00;99.90;;;;;;2063747;28;20025;-67
2021/05/14 00:38:40;;;;;;;14.27;12.98;;;15.00;99.90;;;;;;2064087;28;20106;-67
2021/05/14 00:39:40;;;;;;;15.80;14.40;;;15.00;99.90;;;;;;2063918;28;20018;-67
2021/05/14 00:40:41;;;;;;;15.45;14.02;;;15.00;99.90;;;;;;2063346;28;20093;-67
2021/05/14 00:41:41;;;;;;;12.82;11.52;;;15.00;99.90;;;;;;2063992;28;20363;-68
2021/05/14 00:42:42;;;;;;;15.55;14.10;;;15.00;99.90;;;;;;2063276;28;20508;-68
2021/05/14 00:43:43;;;;;;;11.93;10.85;;;15.00;99.90;;;;;;2063691;28;20057;-68
2021/05/14 00:44:45;;;;;;;17.70;15.48;;;15.00;99.90;;;;;;2063818;28;20019;-67
2021/05/14 00:45:46;;;;;;;16.40;14.85;;;15.00;99.90;;;;;;2063851;28;20033;-68
2021/05/14 00:46:46;;;;;;;17.35;15.65;;;15.00;99.90;;;;;;2062943;28;20022;-68
2021/05/14 00:47:47;;;;;;;18.83;16.92;;;15.00;99.90;;;;;;2063321;28;20018;-68
2021/05/14 00:48:47;;;;;;;16.50;14.90;;;15.00;99.90;;;;;;2063299;28;20026;-68
2021/05/14 00:49:48;;;;;;;16.10;14.18;;;15.00;99.90;;;;;;2063717;28;20049;-68
2021/05/14 00:50:49;;;;;;;18.52;16.70;;;15.00;99.90;;;;;;2063758;28;20030;-68
2021/05/14 00:51:50;;;;;;;15.82;14.25;;;15.00;99.90;;;;;;2063762;28;20031;-68
2021/05/14 00:52:51;;;;;;;15.60;14.00;;;15.00;99.90;;;;;;2063549;28;20038;-68
2021/05/14 00:53:52;;;;;;;11.82;10.77;;;15.00;99.90;;;;;;2059552;28;20033;-68
2021/05/14 00:54:53;;;;;;;15.70;14.20;;;15.00;99.90;;;;;;2057981;28;20055;-68
2021/05/14 00:55:54;;;;;;;20.80;18.75;;;15.00;99.90;;;;;;2058325;28;20035;-68
2021/05/14 00:56:57;;;;;;;18.90;17.23;;;15.00;99.90;;;;;;2061171;28;20035;-68
2021/05/14 00:57:58;;;;;;;20.00;17.83;;;14.90;99.90;;;;;;2063604;28;20057;-68
2021/05/14 00:58:59;;;;;;;19.80;17.95;;;14.90;99.90;;;;;;2063760;28;20030;-68
2021/05/14 01:00:00;;;;;;;19.83;18.02;;;14.90;99.90;;;;;;2063545;28;20030;-68
2021/05/14 01:01:00;;;;;;;20.88;18.88;;;14.90;99.90;;;;;;2063777;28;20431;-67
2021/05/14 01:02:01;;;;;;;21.40;19.30;;;14.90;99.90;;;;;;2062760;28;20060;-67
2021/05/14 01:03:02;;;;;;;20.02;18.10;;;14.90;99.90;;;;;;2062313;28;20088;-67
2021/05/14 01:04:03;;;;;;;20.63;18.73;;;14.90;99.90;;;;;;2071214;28;20493;-68
2021/05/14 01:05:04;;;;;;;18.38;16.77;;;14.90;99.90;;;;;;2077611;28;20119;-68
2021/05/14 01:06:04;;;;;;;20.75;17.83;;;14.90;99.90;;;;;;2078984;28;20059;-68
2021/05/14 01:07:06;;;;;;;21.02;19.02;;;14.80;99.90;;;;;;2063832;28;20038;-68
2021/05/14 01:08:07;;;;;;;21.00;18.98;;;14.80;99.90;;;;;;2063309;28;20660;-68
2021/05/14 01:09:08;;;;;;;16.38;14.65;;;14.80;99.90;;;;;;2063218;28;20050;-68
2021/05/14 01:10:09;;;;;;;18.50;16.70;;;14.80;99.90;;;;;;2063514;28;20026;-67
2021/05/14 01:11:10;;;;;;;20.35;18.45;;;14.80;99.90;;;;;;2063698;28;20053;-68
2021/05/14 01:12:11;;;;;;;19.85;17.80;;;14.80;99.90;;;;;;2063263;28;20018;-68
2021/05/14 01:13:12;;;;;;;19.10;17.25;;;14.80;99.90;;;;;;2071016;28;20030;-67
2021/05/14 01:14:13;;;;;;;18.77;16.95;;;14.80;99.90;;;;;;2070695;28;20569;-68
2021/05/14 01:15:14;;;;;;;15.07;13.52;;;14.80;99.90;;;;;;2063985;28;20098;-67
2021/05/14 01:16:15;;;;;;;19.55;17.55;;;14.80;99.90;;;;;;2063313;28;20054;-68
2021/05/14 01:17:15;;;;;;;20.98;18.85;;;14.80;99.90;;;;;;2062970;28;20026;-68
2021/05/14 01:18:16;;;;;;;21.55;19.40;;;14.80;99.90;;;;;;2062765;28;20082;-68
2021/05/14 01:19:17;;;;;;;19.70;17.65;;;14.80;99.90;;;;;;2063685;28;20418;-68
2021/05/14 01:20:17;;;;;;;20.45;18.33;;;14.80;99.90;;;;;;2063689;28;20034;-68
2021/05/14 01:21:18;;;;;;;16.23;14.68;;;14.80;99.90;;;;;;2060321;28;20084;-68
2021/05/14 01:22:19;;;;;;;18.23;16.63;;;14.80;99.90;;;;;;2061176;28;20030;-68
2021/05/14 01:23:20;;;;;;;21.83;19.63;;;14.80;99.90;;;;;;2062722;28;20187;-68
2021/05/14 01:24:21;;;;;;;20.45;18.35;;;14.80;99.90;;;;;;2060178;28;20390;-67
2021/05/14 01:25:22;;;;;;;17.30;15.55;;;14.80;99.90;;;;;;2063410;28;20417;-67
2021/05/14 01:26:25;;;;;;;20.98;18.90;;;14.80;99.90;;;;;;2063474;28;20100;-67
2021/05/14 01:27:26;;;;;;;16.08;14.40;;;14.80;99.90;;;;;;2063336;28;21033;-67
2021/05/14 01:28:27;;;;;;;17.45;15.65;;;14.80;99.90;;;;;;2063026;28;20026;-67
2021/05/14 01:29:27;;;;;;;19.73;17.67;;;14.70;99.90;;;;;;2063352;28;20354;-68
2021/05/14 01:30:28;;;;;;;20.33;18.38;;;14.70;99.90;;;;;;2063045;28;20583;-68
2021/05/14 01:31:28;;;;;;;20.80;18.73;;;14.70;99.90;;;;;;2063969;28;20081;-68
2021/05/14 01:32:29;;;;;;;17.30;15.75;;;14.70;99.90;;;;;;2060346;28;20113;-68
2021/05/14 01:33:30;;;;;;;17.30;15.63;;;14.70;99.90;;;;;;2055454;28;20026;-68
2021/05/14 01:34:30;;;;;;;16.88;15.23;;;14.70;99.90;;;;;;2063413;28;20022;-68
2021/05/14 01:35:31;;;;;;;17.52;15.73;;;14.80;99.90;;;;;;2063587;28;20026;-67
2021/05/14 01:36:31;;;;;;;19.55;17.63;;;14.70;99.90;;;;;;2059062;28;20027;-68
2021/05/14 01:37:32;;;;;;;20.63;18.67;;;14.70;99.90;;;;;;2061911;28;20117;-68
2021/05/14 01:38:33;;;;;;;15.55;14.05;;;14.70;99.90;;;;;;2062795;28;20027;-68
2021/05/14 01:39:34;;;;;;;18.92;17.02;;;14.70;99.90;;;;;;2063331;28;20038;-68
2021/05/14 01:40:36;;;;;;;21.02;18.92;;;14.70;99.90;;;;;;2061010;28;20031;-68
2021/05/14 01:41:37;;;;;;;17.90;16.25;;;14.70;99.90;;;;;;2060838;28;20069;-68
2021/05/14 01:42:45;;;;;;;15.27;13.85;;;14.70;99.90;;;;;;2061307;28;20568;-67
2021/05/14 01:43:45;;;;;;;20.77;18.77;;;14.70;99.90;;;;;;2063286;28;20109;-68
2021/05/14 01:44:46;;;;;;;15.80;14.30;;;14.70;99.90;;;;;;2063238;28;20023;-67
2021/05/14 01:45:46;;;;;;;18.63;16.83;;;14.70;99.90;;;;;;2063509;28;20030;-67
2021/05/14 01:46:47;;;;;;;20.13;18.33;;;14.70;99.90;;;;;;2062870;28;20026;-68
2021/05/14 01:47:48;;;;;;;21.48;19.38;;;14.70;99.90;;;;;;2063579;28;20022;-67
2021/05/14 01:48:49;;;;;;;19.45;17.60;;;14.70;99.90;;;;;;2063252;28;20038;-67
2021/05/14 01:49:50;;;;;;;16.00;14.15;;;14.70;99.90;;;;;;2063420;28;20026;-68
2021/05/14 01:50:50;;;;;;;18.38;16.52;;;14.60;99.90;;;;;;2063577;28;20042;-68
2021/05/14 01:51:51;;;;;;;23.23;18.45;;;14.60;99.90;;;;;;2063470;28;20026;-68
2021/05/14 01:52:52;;;;;;;19.27;17.23;;;14.60;99.90;;;;;;2062704;28;20440;-68
2021/05/14 01:53:53;;;;;;;17.83;16.13;;;14.60;99.90;;;;;;2063347;28;20102;-67
2021/05/14 01:54:54;;;;;;;20.63;18.63;;;14.60;99.90;;;;;;2062833;28;20443;-67
2021/05/14 01:55:56;;;;;;;19.80;17.90;;;14.60;99.90;;;;;;2063323;28;20448;-67
2021/05/14 01:56:56;;;;;;;18.48;16.77;;;14.60;99.90;;;;;;2063066;28;20130;-68
2021/05/14 01:57:57;;;;;;;15.95;14.50;;;14.60;99.90;;;;;;2063506;28;20025;-68
2021/05/14 01:58:58;;;;;;;16.08;14.48;;;14.60;99.90;;;;;;2063256;28;20022;-68
2021/05/14 01:59:58;;;;;;;17.92;16.23;;;14.60;99.90;;;;;;2062286;28;20073;-68
2021/05/14 02:00:59;;;;;;;17.40;15.65;;;14.60;99.90;;;;;;2061843;28;20482;-68
2021/05/14 02:01:59;;;;;;;17.88;16.13;;;14.50;99.90;;;;;;2061507;28;20098;-68
2021/05/14 02:03:00;;;;;;;19.33;17.33;;;14.50;99.90;;;;;;2057829;28;20031;-68
2021/05/14 02:04:01;;;;;;;19.73;16.80;;;14.50;99.90;;;;;;2064953;28;20076;-67
2021/05/14 02:05:02;;;;;;;14.88;13.40;;;14.50;99.90;;;;;;2064542;28;20026;-67
2021/05/14 02:06:03;;;;;;;17.85;16.15;;;14.50;99.90;;;;;;2064876;28;20068;-67
2021/05/14 02:07:03;;;;;;;17.88;16.00;;;14.50;99.90;;;;;;2064589;28;20034;-67
2021/05/14 02:08:04;;;;;;;18.75;16.75;;;14.50;99.90;;;;;;2064701;28;20027;-67
2021/05/14 02:09:05;;;;;;;19.33;16.77;;;14.40;99.90;;;;;;2064946;28;20030;-67
2021/05/14 02:10:07;;;;;;;16.85;15.30;;;14.40;99.90;;;;;;2064591;28;20089;-68
2021/05/14 02:11:09;;;;;;;18.83;17.08;;;14.40;99.90;;;;;;2064474;28;20023;-67
2021/05/14 02:12:10;;;;;;;18.83;17.02;;;14.40;99.90;;;;;;2063950;28;20437;-68
2021/05/14 02:13:11;;;;;;;19.95;18.05;;;14.40;99.90;;;;;;2077791;28;20025;-67
2021/05/14 02:14:11;;;;;;;16.65;15.02;;;14.40;99.90;;;;;;2080141;28;20029;-67
2021/05/14 02:15:12;;;;;;;19.88;18.02;;;14.40;99.90;;;;;;2063935;28;20482;-68
2021/05/14 02:16:13;;;;;;;17.15;15.63;;;14.30;99.90;;;;;;2064776;28;20472;-68
2021/05/14 02:17:13;;;;;;;15.20;13.77;;;14.30;99.90;;;;;;2064919;28;20073;-68
2021/05/14 02:18:14;;;;;;;16.10;14.23;;;14.30;99.90;;;;;;2064448;28;20022;-67
2021/05/14 02:19:16;;;;;;;21.55;16.50;;;14.30;99.90;;;;;;2064772;28;20050;-68
2021/05/14 02:20:16;;;;;;;17.23;15.52;;;14.30;99.90;;;;;;2064732;28;20022;-67
2021/05/14 02:21:17;;;;;;;16.17;14.68;;;14.30;99.90;;;;;;2064534;28;20029;-68
2021/05/14 02:22:18;;;;;;;15.00;13.52;;;14.30;99.90;;;;;;2063774;28;20081;-68
2021/05/14 02:23:18;;;;;;;16.40;14.90;;;14.30;99.90;;;;;;2064527;28;20050;-68
2021/05/14 02:24:19;;;;;;;17.40;15.80;;;14.30;99.90;;;;;;2064531;28;20029;-67
2021/05/14 02:25:19;;;;;;;17.20;15.60;;;14.30;99.90;;;;;;2064777;28;20053;-68
2021/05/14 02:26:20;;;;;;;17.70;15.95;;;14.20;99.90;;;;;;2064344;28;20042;-68
2021/05/14 02:27:20;;;;;;;17.15;15.52;;;14.20;99.90;;;;;;2064812;28;20524;-68
2021/05/14 02:28:22;;;;;;;17.90;16.30;;;14.20;99.90;;;;;;2064001;28;20105;-68
2021/05/14 02:29:23;;;;;;;16.42;14.98;;;14.20;99.90;;;;;;2064745;28;20061;-67
2021/05/14 02:30:24;;;;;;;14.98;13.30;;;14.20;99.90;;;;;;2064432;28;20057;-68
2021/05/14 02:31:25;;;;;;;18.67;16.95;;;14.20;99.90;;;;;;2064724;28;20041;-68
2021/05/14 02:32:25;;;;;;;17.02;15.27;;;14.20;99.90;;;;;;2063546;28;20129;-68
2021/05/14 02:33:26;;;;;;;16.17;14.68;;;14.20;99.90;;;;;;2064727;28;20023;-68
2021/05/14 02:34:27;;;;;;;19.25;17.35;;;14.20;99.90;;;;;;2064093;28;20065;-68
2021/05/14 02:35:27;;;;;;;17.23;15.50;;;14.20;99.90;;;;;;2064793;28;20026;-68
2021/05/14 02:36:28;;;;;;;15.88;14.38;;;14.20;99.90;;;;;;2058380;28;20027;-68
2021/05/14 02:37:28;;;;;;;15.68;14.15;;;14.20;99.90;;;;;;2061880;28;20054;-68
2021/05/14 02:38:29;;;;;;;16.23;14.75;;;14.10;99.90;;;;;;2064063;28;20034;-68
2021/05/14 02:39:29;;;;;;;18.92;16.92;;;14.10;99.90;;;;;;2064676;28;20033;-68
2021/05/14 02:40:30;;;;;;;18.90;16.92;;;14.10;99.90;;;;;;2064161;28;20109;-68
2021/05/14 02:41:31;;;;;;;19.40;17.50;;;14.10;99.90;;;;;;2064607;28;20034;-68
2021/05/14 02:42:32;;;;;;;18.90;17.05;;;14.10;99.90;;;;;;2058587;28;20030;-68
2021/05/14 02:43:32;;;;;;;18.73;16.92;;;14.20;99.90;;;;;;2062313;28;20537;-68
2021/05/14 02:44:33;;;;;;;18.20;16.48;;;14.10;99.90;;;;;;2058634;28;20030;-68
2021/05/14 02:45:33;;;;;;;16.08;14.48;;;14.10;99.90;;;;;;2061297;28;20026;-68
2021/05/14 02:46:35;;;;;;;16.95;15.25;;;14.10;99.90;;;;;;2064672;28;20497;-68
2021/05/14 02:47:35;;;;;;;15.35;13.80;;;14.10;99.90;;;;;;2064695;28;20485;-68
2021/05/14 02:48:36;;;;;;;13.68;12.35;;;14.10;99.90;;;;;;2064402;28;20535;-67
2021/05/14 02:49:37;;;;;;;18.80;17.10;;;14.10;99.90;;;;;;2064498;28;20030;-68
2021/05/14 02:50:38;;;;;;;19.67;17.88;;;14.10;99.90;;;;;;2064642;28;20026;-68
2021/05/14 02:51:38;;;;;;;19.13;17.20;;;14.10;99.90;;;;;;2064319;28;20027;-68
2021/05/14 02:52:39;;;;;;;13.38;12.15;;;14.10;99.90;;;;;;2063928;28;20113;-67
2021/05/14 02:53:40;;;;;;;17.25;15.57;;;14.10;99.90;;;;;;2064147;28;20027;-67
2021/05/14 02:54:40;;;;;;;17.90;16.30;;;14.10;99.90;;;;;;2064570;28;20394;-68
2021/05/14 02:55:41;;;;;;;17.63;16.00;;;14.00;99.90;;;;;;2064485;28;20026;-67
2021/05/14 02:56:41;;;;;;;18.10;16.42;;;14.10;99.90;;;;;;2060529;28;20100;-67
2021/05/14 02:57:43;;;;;;;20.25;18.08;;;14.00;99.90;;;;;;2064637;28;20424;-67
2021/05/14 02:58:44;;;;;;;16.15;14.65;;;14.00;99.90;;;;;;2064499;28;20030;-68
2021/05/14 02:59:45;;;;;;;19.48;17.48;;;14.00;99.90;;;;;;2064417;28;20025;-68
2021/05/14 03:00:45;;;;;;;16.25;14.73;;;14.00;99.90;;;;;;2064680;28;20109;-67
2021/05/14 03:01:46;;;;;;;17.95;16.05;;;14.00;99.90;;;;;;2063464;28;20018;-67
2021/05/14 03:02:47;;;;;;;15.60;14.10;;;14.00;99.90;;;;;;2062838;28;20073;-68
2021/05/14 03:03:47;;;;;;;17.15;15.57;;;14.00;99.90;;;;;;2063564;28;20035;-68
2021/05/14 03:04:48;;;;;;;18.58;16.77;;;14.00;99.90;;;;;;2063595;28;20030;-68
2021/05/14 03:05:48;;;;;;;17.50;15.68;;;14.00;99.90;;;;;;2063683;28;20044;-68
2021/05/14 03:06:49;;;;;;;17.98;16.27;;;14.00;99.90;;;;;;2063523;28;20033;-68
2021/05/14 03:07:50;;;;;;;18.25;16.40;;;14.00;99.90;;;;;;2062815;28;20073;-67
2021/05/14 03:08:50;;;;;;;17.58;15.88;;;14.00;99.90;;;;;;2062934;28;20489;-67
2021/05/14 03:09:51;;;;;;;19.60;17.80;;;14.00;99.90;;;;;;2060946;28;20035;-67
2021/05/14 03:10:51;;;;;;;17.95;16.08;;;13.90;99.90;;;;;;2054324;28;20023;-68
2021/05/14 03:11:52;;;;;;;17.88;16.10;;;13.90;99.90;;;;;;2064293;28;20030;-68
2021/05/14 03:12:53;;;;;;;15.38;13.75;;;13.90;99.90;;;;;;2064060;28;20057;-68
2021/05/14 03:13:53;;;;;;;16.65;15.05;;;13.90;99.90;;;;;;2064753;28;20026;-68
2021/05/14 03:14:54;;;;;;;15.98;14.57;;;13.90;99.90;;;;;;2064513;28;20030;-68
2021/05/14 03:15:55;;;;;;;18.40;16.70;;;13.90;99.90;;;;;;2064649;28;20054;-68
2021/05/14 03:16:55;;;;;;;18.77;17.00;;;13.90;99.90;;;;;;2064746;28;20034;-67
2021/05/14 03:17:56;;;;;;;18.67;16.75;;;13.90;99.90;;;;;;2064470;28;20441;-68
2021/05/14 03:18:56;;;;;;;16.10;14.60;;;13.90;99.90;;;;;;2064426;28;20031;-68
2021/05/14 03:19:57;;;;;;;13.40;12.20;;;13.90;99.90;;;;;;2064588;28;20031;-68
2021/05/14 03:20:59;;;;;;;15.88;14.23;;;13.90;99.90;;;;;;2064416;28;20038;-68
2021/05/14 03:21:59;;;;;;;15.13;13.73;;;13.80;99.90;;;;;;2063927;28;20088;-67
2021/05/14 03:23:00;;;;;;;14.88;13.38;;;13.80;99.90;;;;;;2063333;28;20026;-68
2021/05/14 03:24:01;;;;;;;18.55;16.95;;;13.90;99.90;;;;;;2064033;28;20030;-68
2021/05/14 03:25:02;;;;;;;14.25;12.93;;;13.90;99.90;;;;;;2064478;28;20022;-68
2021/05/14 03:26:03;;;;;;;15.48;13.90;;;13.90;99.90;;;;;;2064302;28;20610;-68
2021/05/14 03:27:04;;;;;;;13.32;12.02;;;13.80;99.90;;;;;;2064532;28;20386;-67
2021/05/14 03:28:04;;;;;;;17.90;16.20;;;13.80;99.90;;;;;;2064558;28;20022;-67
2021/05/14 03:29:05;;;;;;;15.10;13.65;;;13.80;99.90;;;;;;2064492;28;20034;-68
2021/05/14 03:30:07;;;;;;;19.95;18.15;;;13.80;99.90;;;;;;2064792;28;20130;-68
2021/05/14 03:31:08;;;;;;;22.27;20.17;;;13.80;99.90;;;;;;2064543;28;20019;-67
2021/05/14 03:32:09;;;;;;;21.98;19.80;;;13.80;99.90;;;;;;2063897;28;20019;-68
2021/05/14 03:33:10;;;;;;;21.25;19.23;;;13.80;99.90;;;;;;2064450;28;20042;-68
2021/05/14 03:34:11;;;;;;;21.55;19.52;;;13.80;99.90;;;;;;2064450;28;20014;-68
2021/05/14 03:35:12;;;;;;;21.83;19.67;;;13.80;99.90;;;;;;2064471;28;20520;-68
2021/05/14 03:36:17;;;;;;;22.27;20.13;;;13.80;99.90;;;;;;2064232;28;20022;-68
2021/05/14 03:37:17;;;;;;;20.40;18.50;;;13.80;99.90;;;;;;2063730;28;20381;-68
2021/05/14 03:38:22;;;;;;;20.13;18.25;;;13.80;99.90;;;;;;2060674;28;20026;-68
2021/05/14 03:39:25;;;;;;;20.02;18.05;;;13.80;99.90;;;;;;2064474;28;20121;-68
2021/05/14 03:42:30;;;;;;;21.15;19.05;;;13.70;99.90;;;;;;2063747;28;20425;-68
2021/05/14 03:43:31;;;;;;;21.02;19.05;;;13.70;99.90;;;;;;2064531;28;20101;-67
2021/05/14 03:44:32;;;;;;;20.80;18.70;;;13.70;99.90;;;;;;2064520;28;20037;-67
2021/05/14 03:45:33;;;;;;;16.48;14.95;;;13.80;99.90;;;;;;2064366;28;20585;-68
2021/05/14 03:46:34;;;;;;;20.13;18.13;;;13.80;99.90;;;;;;2064597;28;20034;-68
2021/05/14 03:47:35;;;;;;;14.88;13.48;;;13.80;99.90;;;;;;2064352;28;20026;-68
2021/05/14 03:48:36;;;;;;;15.85;13.93;;;13.80;99.90;;;;;;2064244;28;20030;-68
2021/05/14 03:49:38;;;;;;;13.52;12.30;;;13.80;99.90;;;;;;2064295;28;20027;-67
2021/05/14 03:50:38;;;;;;;14.40;13.10;;;13.80;99.90;;;;;;2064365;28;20022;-68
2021/05/14 03:51:39;;;;;;;17.45;15.60;;;13.70;99.90;;;;;;2064054;28;20109;-67
2021/05/14 03:52:40;;;;;;;17.65;15.98;;;13.80;99.90;;;;;;2064118;28;20027;-68
2021/05/14 03:53:41;;;;;;;17.27;15.48;;;13.70;99.90;;;;;;2059384;28;20037;-68
2021/05/14 03:54:42;;;;;;;18.98;17.17;;;13.80;99.90;;;;;;2056535;28;20030;-68
2021/05/14 03:55:43;;;;;;;18.65;16.75;;;13.80;99.90;;;;;;2064324;28;20049;-68
2021/05/14 03:56:43;;;;;;;16.20;14.77;;;13.80;99.90;;;;;;2064486;28;20102;-68
2021/05/14 03:57:44;;;;;;;19.85;17.88;;;13.80;99.90;;;;;;2064161;28;20042;-67
2021/05/14 03:58:44;;;;;;;16.48;13.88;;;13.80;99.90;;;;;;2064415;28;20032;-68
2021/05/14 03:59:45;;;;;;;15.35;13.85;;;13.80;99.90;;;;;;2064419;28;20808;-68
2021/05/14 04:00:46;;;;;;;17.15;15.35;;;13.80;99.90;;;;;;2064330;28;20034;-68
2021/05/14 04:01:46;;;;;;;15.63;14.15;;;13.80;99.90;;;;;;2064283;28;20033;-67
2021/05/14 04:02:47;;;;;;;19.73;17.73;;;13.80;99.90;;;;;;2063525;28;20022;-68
2021/05/14 04:03:49;;;;;;;20.83;18.75;;;13.80;99.90;;;;;;2064468;28;20466;-68
2021/05/14 04:04:50;;;;;;;18.30;16.48;;;13.80;99.90;;;;;;2064201;28;20157;-68
2021/05/14 04:05:51;;;;;;;20.08;18.13;;;13.80;99.90;;;;;;2063777;28;20080;-67
2021/05/14 04:06:52;;;;;;;19.88;17.77;;;13.80;99.90;;;;;;2064440;28;20036;-67
2021/05/14 04:07:54;;;;;;;21.33;19.15;;;13.80;99.90;;;;;;2064372;28;20045;-68
2021/05/14 04:08:55;;;;;;;20.90;18.70;;;13.80;99.90;;;;;;2064086;28;20414;-68
2021/05/14 04:14:28;;;;;;;22.10;19.80;;;13.80;99.90;;;;;;2064129;28;20030;-67
2021/05/14 04:14:52;;;;;;;21.27;19.00;;;13.80;99.90;;;;;;2064075;28;20062;-68
2021/05/14 04:15:53;;;;;;;21.95;19.77;;;13.70;99.90;;;;;;2064286;28;20034;-68
2021/05/14 04:16:53;;;;;;;21.45;19.35;;;13.70;99.90;;;;;;2064269;28;20061;-68
2021/05/14 04:17:54;;;;;;;19.80;17.95;;;13.70;99.90;;;;;;2063988;28;20030;-67
2021/05/14 04:18:54;;;;;;;20.23;18.25;;;13.80;99.90;;;;;;2063580;28;20537;-68
2021/05/14 04:19:55;;;;;;;20.23;18.42;;;13.80;99.90;;;;;;2064364;28;20031;-67
2021/05/14 04:20:56;;;;;;;23.15;19.60;;;13.80;99.90;;;;;;2064222;28;20026;-67
2021/05/14 04:21:58;;;;;;;22.17;19.88;;;13.70;99.90;;;;;;2064199;28;20049;-68
2021/05/14 04:22:58;;;;;;;20.02;18.15;;;13.80;99.90;;;;;;2069757;28;20030;-68
2021/05/14 04:23:59;;;;;;;20.92;18.75;;;13.80;99.90;;;;;;2071843;28;20034;-68
2021/05/14 04:24:59;;;;;;;21.75;19.65;;;13.80;99.90;;;;;;2064169;28;20030;-68
2021/05/14 04:26:01;;;;;;;21.08;19.02;;;13.80;99.90;;;;;;2064200;28;20086;-67
2021/05/14 04:27:02;;;;;;;20.33;18.33;;;13.80;99.90;;;;;;2063873;28;20027;-68
2021/05/14 04:28:03;;;;;;;21.08;18.45;;;13.80;99.90;;;;;;2064179;28;20046;-68
2021/05/14 04:29:04;;;;;;;20.48;18.38;;;13.80;99.90;;;;;;2063996;28;20026;-67
2021/05/14 04:30:05;;;;;;;20.67;18.50;;;13.80;99.90;;;;;;2064090;28;20030;-68
2021/05/14 04:31:06;;;;;;;20.70;18.60;;;13.80;99.90;;;;;;2063002;28;20031;-67
2021/05/14 04:32:06;;;;;;;21.95;19.83;;;13.80;99.90;;;;;;2063403;28;20493;-68
2021/05/14 04:33:07;;;;;;;22.20;20.02;;;13.80;99.90;;;;;;2063018;28;20038;-68
2021/05/14 04:34:08;;;;;;;23.30;19.40;;;13.80;99.90;;;;;;2064197;28;20462;-68
2021/05/14 04:35:09;;;;;;;21.92;19.67;;;13.90;99.90;;;;;;2063846;28;20026;-68
2021/05/14 04:36:09;;;;;;;21.40;19.15;;;13.90;99.90;;;;;;2060584;28;20055;-68
2021/05/14 04:37:12;;;;;;;22.05;19.83;;;13.90;99.90;;;;;;2057315;28;20026;-68
2021/05/14 04:38:13;;;;;;;22.13;18.70;;;13.90;99.90;;;;;;2056750;28;20034;-68
2021/05/14 04:39:14;;;;;;;21.98;19.88;;;13.90;99.90;;;;;;2062016;28;20030;-68
2021/05/14 04:40:14;;;;;;;22.77;20.45;;;13.90;99.90;;;;;;2057410;28;20035;-67
2021/05/14 04:41:15;;;;;;;21.52;19.52;;;13.90;99.90;;;;;;2056173;28;20054;-67
2021/05/14 04:42:15;;;;;;;21.08;18.88;;;13.90;99.90;;;;;;2060365;28;20034;-67
2021/05/14 04:43:16;;;;;;;26.13;19.58;;;13.90;99.90;;;;;;2063871;28;20142;-67
2021/05/14 04:44:16;;;;;;;20.40;18.30;;;13.90;99.90;;;;;;2064123;28;20097;-68
2021/05/14 04:45:17;;;;;;;21.40;19.30;;;13.90;99.90;;;;;;2063938;28;20027;-68
2021/05/14 04:46:18;;;;;;;22.88;20.65;;;13.90;99.90;;;;;;2063856;28;20069;-68
2021/05/14 04:47:18;;;;;;;22.88;19.83;;;13.90;99.90;;;;;;2062970;28;20031;-68
2021/05/14 04:48:19;;;;;;;22.77;20.58;;;14.00;99.90;;;;;;2063698;28;20044;-68
2021/05/14 04:49:19;;;;;;;22.15;20.08;;;14.00;99.90;;;;;;2063652;28;20041;-68
2021/05/14 04:50:20;;;;;;;22.83;20.63;;;13.90;99.90;;;;;;2063842;28;20030;-68
2021/05/14 04:51:21;;;;;;;22.48;20.27;;;14.00;99.90;;;;;;2064279;28;20470;-68
2021/05/14 04:52:25;;;;;;;24.13;21.67;;;14.00;99.90;;;;;;2063224;28;20062;-68
2021/05/14 04:53:29;;;;;;;22.42;20.13;;;14.00;99.90;;;;;;2064025;28;20647;-67
2021/05/14 04:54:30;;;;;;;21.23;19.10;;;14.00;99.90;;;;;;2063147;28;20037;-67
2021/05/14 04:55:31;;;;;;;22.52;20.33;;;14.00;99.90;;;;;;2063350;28;20019;-68
2021/05/14 04:56:32;;;;;;;21.90;19.65;;;14.00;99.90;;;;;;2063870;28;20440;-68
2021/05/14 04:57:33;;;;;;;23.13;20.83;;;14.00;99.90;;;;;;2063864;28;20026;-68
2021/05/14 04:58:33;;;;;;;22.38;20.38;;;14.10;99.90;;;;;;2063934;28;20029;-68
2021/05/14 04:59:34;;;;;;;20.90;18.88;;;14.10;99.90;;;;;;2063978;28;20034;-68
2021/05/14 05:00:34;;;;;;;23.60;21.30;;;14.10;99.90;;;;;;2063564;28;20065;-68
2021/05/14 05:01:35;;;;;;;23.08;20.75;;;14.10;99.90;;;;;;2063855;28;20470;-68
2021/05/14 05:02:36;;;;;;;23.83;21.48;;;14.10;99.90;;;;;;2063460;28;20068;-68
2021/05/14 05:03:37;;;;;;;21.90;19.70;;;14.20;99.90;;;;;;2063653;28;20064;-68
2021/05/14 05:04:38;;;;;;;25.38;22.92;;;14.20;99.90;;;;;;2063864;28;20030;-67
2021/05/14 05:05:39;;;;;;;23.17;20.88;;;14.20;99.90;;;;;;2063812;28;20034;-67
2021/05/14 05:06:40;;;;;;;23.75;21.50;;;14.20;99.90;;;;;;2063779;28;20152;-68
2021/05/14 05:07:41;;;;;;;23.33;20.85;;;14.20;99.90;;;;;;2063851;28;20030;-68
2021/05/14 05:08:42;;;;;;;25.25;22.55;;;14.20;99.90;;;;;;2063357;28;20454;-68
2021/05/14 05:09:42;;;;;;;23.90;21.48;;;14.20;99.90;;;;;;2063759;28;20113;-68
2021/05/14 05:10:43;;;;;;;23.77;21.48;;;14.20;99.90;;;;;;2063791;28;20098;-68
2021/05/14 05:11:43;;;;;;;23.45;21.13;;;14.30;99.90;;;;;;2071221;28;20022;-68
2021/05/14 05:12:44;;;;;;;23.73;21.40;;;14.30;99.90;;;;;;2070861;28;20026;-68
2021/05/14 05:13:45;;;;;;;23.75;21.45;;;14.30;99.90;;;;;;2063941;28;20026;-68
2021/05/14 05:14:46;;;;;;;22.55;20.35;;;14.30;99.90;;;;;;2063326;28;20446;-68